sensor_id;sensor_type;location;lat;lon;timestamp;temperature;humidity
26408;DHT22;14583;43.604;1.364;2023-05-20T00:00:06;13.30;99.90
26408;DHT22;14583;43.604;1.364;2023-05-20T00:02:32;13.20;99.90
26408;DHT22;14583;43.604;1.364;2023-05-20T00:04:58;13.20;99.90
26408;DHT22;14583;43.604;1.364;2023-05-20T00:07:23;13.10;99.90
26408;DHT22;14583;43.604;1.364;2023-05-20T00:09:49;13.20;99.90
26408;DHT22;14583;43.604;1.364;2023-05-20T00:12:15;13.10;99.90
26408;DHT22;14583;43.604;1.364;2023-05-20T00:14:40;13.10;99.90
26408;DHT22;14583;43.604;1.364;2023-05-20T00:17:06;13.00;99.90
26408;DHT22;14583;43.604;1.364;2023-05-20T00:19:32;13.00;99.90
26408;DHT22;14583;43.604;1.364;2023-05-20T00:21:57;13.00;99.90
26408;DHT22;14583;43.604;1.364;2023-05-20T00:24:24;12.90;99.90
26408;DHT22;14583;43.604;1.364;2023-05-20T00:26:49;12.90;99.90
26408;DHT22;14583;43.604;1.364;2023-05-20T00:29:15;12.90;99.90
26408;DHT22;14583;43.604;1.364;2023-05-20T00:31:41;12.90;99.90
26408;DHT22;14583;43.604;1.364;2023-05-20T00:34:07;13.00;99.90
26408;DHT22;14583;43.604;1.364;2023-05-20T00:36:34;13.00;99.90
26408;DHT22;14583;43.604;1.364;2023-05-20T00:39:00;12.90;99.90
26408;DHT22;14583;43.604;1.364;2023-05-20T00:41:26;12.90;99.90
26408;DHT22;14583;43.604;1.364;2023-05-20T00:43:56;13.00;99.90
26408;DHT22;14583;43.604;1.364;2023-05-20T00:46:23;13.00;99.90
26408;DHT22;14583;43.604;1.364;2023-05-20T00:48:51;13.00;99.90
26408;DHT22;14583;43.604;1.364;2023-05-20T00:51:17;13.00;99.90
26408;DHT22;14583;43.604;1.364;2023-05-20T00:53:43;12.90;99.90
26408;DHT22;14583;43.604;1.364;2023-05-20T00:56:12;13.00;99.90
26408;DHT22;14583;43.604;1.364;2023-05-20T00:58:39;12.90;99.90
26408;DHT22;14583;43.604;1.364;2023-05-20T01:01:05;12.90;99.90
26408;DHT22;14583;43.604;1.364;2023-05-20T01:03:31;13.00;99.90
26408;DHT22;14583;43.604;1.364;2023-05-20T01:05:57;13.00;99.90
26408;DHT22;14583;43.604;1.364;2023-05-20T01:08:24;12.90;99.90
26408;DHT22;14583;43.604;1.364;2023-05-20T01:11:05;12.80;99.90
26408;DHT22;14583;43.604;1.364;2023-05-20T01:13:38;12.80;99.90
26408;DHT22;14583;43.604;1.364;2023-05-20T01:16:05;12.80;99.90
26408;DHT22;14583;43.604;1.364;2023-05-20T01:18:32;12.90;99.90
26408;DHT22;14583;43.604;1.364;2023-05-20T01:21:01;12.90;99.90
26408;DHT22;14583;43.604;1.364;2023-05-20T01:23:41;12.90;99.90
26408;DHT22;14583;43.604;1.364;2023-05-20T01:26:07;12.90;99.90
26408;DHT22;14583;43.604;1.364;2023-05-20T01:28:35;12.80;99.90
26408;DHT22;14583;43.604;1.364;2023-05-20T01:31:02;12.80;99.90
26408;DHT22;14583;43.604;1.364;2023-05-20T01:33:28;12.90;99.90
26408;DHT22;14583;43.604;1.364;2023-05-20T01:35:55;12.80;99.90
26408;DHT22;14583;43.604;1.364;2023-05-20T01:38:22;12.80;99.90
26408;DHT22;14583;43.604;1.364;2023-05-20T01:40:49;12.80;99.90
26408;DHT22;14583;43.604;1.364;2023-05-20T01:43:16;12.90;99.90
26408;DHT22;14583;43.604;1.364;2023-05-20T01:45:43;12.90;99.90
26408;DHT22;14583;43.604;1.364;2023-05-20T01:48:10;12.80;99.90
26408;DHT22;14583;43.604;1.364;2023-05-20T01:50:36;12.80;99.90
26408;DHT22;14583;43.604;1.364;2023-05-20T01:53:02;12.70;99.90
26408;DHT22;14583;43.604;1.364;2023-05-20T01:55:28;12.70;99.90
26408;DHT22;14583;43.604;1.364;2023-05-20T01:57:54;12.70;99.90
26408;DHT22;14583;43.604;1.364;2023-05-20T02:00:20;12.70;99.90
26408;DHT22;14583;43.604;1.364;2023-05-20T02:02:45;12.80;99.90
26408;DHT22;14583;43.604;1.364;2023-05-20T02:05:11;12.80;99.90
26408;DHT22;14583;43.604;1.364;2023-05-20T02:07:37;12.70;99.90
26408;DHT22;14583;43.604;1.364;2023-05-20T02:10:03;12.80;99.90
26408;DHT22;14583;43.604;1.364;2023-05-20T02:12:29;12.90;99.90
26408;DHT22;14583;43.604;1.364;2023-05-20T02:14:57;12.90;99.90
26408;DHT22;14583;43.604;1.364;2023-05-20T02:17:23;12.80;99.90
26408;DHT22;14583;43.604;1.364;2023-05-20T02:19:48;12.80;99.90
26408;DHT22;14583;43.604;1.364;2023-05-20T02:22:14;12.90;99.90
26408;DHT22;14583;43.604;1.364;2023-05-20T02:24:40;12.80;99.90
26408;DHT22;14583;43.604;1.364;2023-05-20T02:27:07;12.90;99.90
26408;DHT22;14583;43.604;1.364;2023-05-20T02:29:33;12.80;99.90
26408;DHT22;14583;43.604;1.364;2023-05-20T02:31:58;12.90;99.90
26408;DHT22;14583;43.604;1.364;2023-05-20T02:34:24;12.90;99.90
26408;DHT22;14583;43.604;1.364;2023-05-20T02:36:50;13.00;99.90
26408;DHT22;14583;43.604;1.364;2023-05-20T02:39:17;13.00;99.90
26408;DHT22;14583;43.604;1.364;2023-05-20T02:41:42;12.90;99.90
26408;DHT22;14583;43.604;1.364;2023-05-20T02:44:08;12.90;99.90
26408;DHT22;14583;43.604;1.364;2023-05-20T02:46:34;12.90;99.90
26408;DHT22;14583;43.604;1.364;2023-05-20T02:49:00;12.90;99.90
26408;DHT22;14583;43.604;1.364;2023-05-20T02:51:25;12.90;99.90
26408;DHT22;14583;43.604;1.364;2023-05-20T02:53:51;12.90;99.90
26408;DHT22;14583;43.604;1.364;2023-05-20T02:56:17;12.80;99.90
26408;DHT22;14583;43.604;1.364;2023-05-20T02:58:46;12.70;99.90
26408;DHT22;14583;43.604;1.364;2023-05-20T03:01:12;12.70;99.90
26408;DHT22;14583;43.604;1.364;2023-05-20T03:03:38;12.80;99.90
26408;DHT22;14583;43.604;1.364;2023-05-20T03:06:05;12.90;99.90
26408;DHT22;14583;43.604;1.364;2023-05-20T03:08:31;12.90;99.90
26408;DHT22;14583;43.604;1.364;2023-05-20T03:10:58;12.90;99.90
26408;DHT22;14583;43.604;1.364;2023-05-20T03:13:24;12.90;99.90
26408;DHT22;14583;43.604;1.364;2023-05-20T03:15:50;12.90;99.90
26408;DHT22;14583;43.604;1.364;2023-05-20T03:18:15;12.90;99.90
26408;DHT22;14583;43.604;1.364;2023-05-20T03:20:41;12.90;99.90
26408;DHT22;14583;43.604;1.364;2023-05-20T03:23:07;12.90;99.90
26408;DHT22;14583;43.604;1.364;2023-05-20T03:25:33;12.80;99.90
26408;DHT22;14583;43.604;1.364;2023-05-20T03:27:59;12.80;99.90
26408;DHT22;14583;43.604;1.364;2023-05-20T03:30:28;12.90;99.90
26408;DHT22;14583;43.604;1.364;2023-05-20T03:32:54;12.90;99.90
26408;DHT22;14583;43.604;1.364;2023-05-20T03:35:22;12.90;99.90
26408;DHT22;14583;43.604;1.364;2023-05-20T03:37:47;12.90;99.90
26408;DHT22;14583;43.604;1.364;2023-05-20T03:40:13;12.90;99.90
26408;DHT22;14583;43.604;1.364;2023-05-20T03:42:39;12.80;99.90
26408;DHT22;14583;43.604;1.364;2023-05-20T03:45:05;12.80;99.90
26408;DHT22;14583;43.604;1.364;2023-05-20T03:47:33;12.80;99.90
26408;DHT22;14583;43.604;1.364;2023-05-20T03:49:59;12.70;99.90
26408;DHT22;14583;43.604;1.364;2023-05-20T03:52:25;12.70;99.90
26408;DHT22;14583;43.604;1.364;2023-05-20T03:54:51;12.70;99.90
26408;DHT22;14583;43.604;1.364;2023-05-20T03:57:17;12.80;99.90
26408;DHT22;14583;43.604;1.364;2023-05-20T03:59:45;12.70;99.90
26408;DHT22;14583;43.604;1.364;2023-05-20T04:02:11;12.70;99.90
26408;DHT22;14583;43.604;1.364;2023-05-20T04:04:36;12.80;99.90
26408;DHT22;14583;43.604;1.364;2023-05-20T04:07:02;12.80;99.90
26408;DHT22;14583;43.604;1.364;2023-05-20T04:09:29;12.80;99.90
26408;DHT22;14583;43.604;1.364;2023-05-20T04:11:55;12.80;99.90
26408;DHT22;14583;43.604;1.364;2023-05-20T04:14:21;12.70;99.90
26408;DHT22;14583;43.604;1.364;2023-05-20T04:16:47;12.70;99.90
26408;DHT22;14583;43.604;1.364;2023-05-20T04:19:14;12.60;99.90
26408;DHT22;14583;43.604;1.364;2023-05-20T04:21:43;12.60;99.90
26408;DHT22;14583;43.604;1.364;2023-05-20T04:24:09;12.60;99.90
26408;DHT22;14583;43.604;1.364;2023-05-20T04:26:35;12.70;99.90
26408;DHT22;14583;43.604;1.364;2023-05-20T04:29:01;12.70;99.90
26408;DHT22;14583;43.604;1.364;2023-05-20T04:31:31;12.70;99.90
26408;DHT22;14583;43.604;1.364;2023-05-20T04:33:57;12.60;99.90
26408;DHT22;14583;43.604;1.364;2023-05-20T04:36:23;12.50;99.90
26408;DHT22;14583;43.604;1.364;2023-05-20T04:38:54;12.60;99.90
26408;DHT22;14583;43.604;1.364;2023-05-20T04:41:20;12.60;99.90
26408;DHT22;14583;43.604;1.364;2023-05-20T04:43:46;12.60;99.90
26408;DHT22;14583;43.604;1.364;2023-05-20T04:46:12;12.60;99.90
26408;DHT22;14583;43.604;1.364;2023-05-20T04:48:38;12.50;99.90
26408;DHT22;14583;43.604;1.364;2023-05-20T04:51:04;12.40;99.90
26408;DHT22;14583;43.604;1.364;2023-05-20T04:53:29;12.40;99.90
26408;DHT22;14583;43.604;1.364;2023-05-20T04:55:55;12.50;99.90
26408;DHT22;14583;43.604;1.364;2023-05-20T04:58:22;12.50;99.90
26408;DHT22;14583;43.604;1.364;2023-05-20T05:00:50;12.60;99.90
26408;DHT22;14583;43.604;1.364;2023-05-20T05:03:16;12.60;99.90
26408;DHT22;14583;43.604;1.364;2023-05-20T05:05:42;12.60;99.90
26408;DHT22;14583;43.604;1.364;2023-05-20T05:08:09;12.60;99.90
26408;DHT22;14583;43.604;1.364;2023-05-20T05:10:36;12.50;99.90
26408;DHT22;14583;43.604;1.364;2023-05-20T05:13:02;12.50;99.90
26408;DHT22;14583;43.604;1.364;2023-05-20T05:15:28;12.60;99.90
26408;DHT22;14583;43.604;1.364;2023-05-20T05:17:54;12.50;99.90
26408;DHT22;14583;43.604;1.364;2023-05-20T05:20:20;12.60;99.90
26408;DHT22;14583;43.604;1.364;2023-05-20T05:22:46;12.60;99.90
26408;DHT22;14583;43.604;1.364;2023-05-20T05:25:12;12.60;99.90
26408;DHT22;14583;43.604;1.364;2023-05-20T05:27:38;12.60;99.90
26408;DHT22;14583;43.604;1.364;2023-05-20T05:30:05;12.70;99.90
26408;DHT22;14583;43.604;1.364;2023-05-20T05:32:31;12.60;99.90
26408;DHT22;14583;43.604;1.364;2023-05-20T05:34:57;12.80;99.90
26408;DHT22;14583;43.604;1.364;2023-05-20T05:37:23;12.80;99.90
26408;DHT22;14583;43.604;1.364;2023-05-20T05:39:49;12.80;99.90
26408;DHT22;14583;43.604;1.364;2023-05-20T05:42:14;12.90;99.90
26408;DHT22;14583;43.604;1.364;2023-05-20T05:44:40;13.00;99.90
26408;DHT22;14583;43.604;1.364;2023-05-20T05:47:06;13.00;99.90
26408;DHT22;14583;43.604;1.364;2023-05-20T05:49:32;13.00;99.90
26408;DHT22;14583;43.604;1.364;2023-05-20T05:51:58;13.10;99.90
26408;DHT22;14583;43.604;1.364;2023-05-20T05:54:24;13.10;99.90
26408;DHT22;14583;43.604;1.364;2023-05-20T05:56:50;13.20;99.90
26408;DHT22;14583;43.604;1.364;2023-05-20T05:59:16;13.30;99.90
26408;DHT22;14583;43.604;1.364;2023-05-20T06:01:42;13.30;99.90
26408;DHT22;14583;43.604;1.364;2023-05-20T06:04:08;13.30;99.90
26408;DHT22;14583;43.604;1.364;2023-05-20T06:06:33;13.50;99.90
26408;DHT22;14583;43.604;1.364;2023-05-20T06:08:59;13.50;99.90
26408;DHT22;14583;43.604;1.364;2023-05-20T06:11:25;13.50;99.90
26408;DHT22;14583;43.604;1.364;2023-05-20T06:13:51;13.50;99.90
26408;DHT22;14583;43.604;1.364;2023-05-20T06:16:16;13.50;99.90
26408;DHT22;14583;43.604;1.364;2023-05-20T06:18:44;13.60;99.90
26408;DHT22;14583;43.604;1.364;2023-05-20T06:21:10;13.70;99.90
26408;DHT22;14583;43.604;1.364;2023-05-20T06:23:35;13.70;99.90
26408;DHT22;14583;43.604;1.364;2023-05-20T06:26:01;13.70;99.90
26408;DHT22;14583;43.604;1.364;2023-05-20T06:28:27;13.70;99.90
26408;DHT22;14583;43.604;1.364;2023-05-20T06:30:54;13.70;99.90
26408;DHT22;14583;43.604;1.364;2023-05-20T06:33:22;13.80;99.90
26408;DHT22;14583;43.604;1.364;2023-05-20T06:35:50;13.70;99.90
26408;DHT22;14583;43.604;1.364;2023-05-20T06:38:16;13.80;99.90
26408;DHT22;14583;43.604;1.364;2023-05-20T06:40:42;13.90;99.90
26408;DHT22;14583;43.604;1.364;2023-05-20T06:43:07;13.80;99.90
26408;DHT22;14583;43.604;1.364;2023-05-20T06:45:33;13.80;99.90
26408;DHT22;14583;43.604;1.364;2023-05-20T06:47:59;13.90;99.90
26408;DHT22;14583;43.604;1.364;2023-05-20T06:50:24;14.00;99.90
26408;DHT22;14583;43.604;1.364;2023-05-20T06:52:52;14.00;99.90
26408;DHT22;14583;43.604;1.364;2023-05-20T06:55:18;14.10;99.90
26408;DHT22;14583;43.604;1.364;2023-05-20T06:57:44;14.20;99.90
26408;DHT22;14583;43.604;1.364;2023-05-20T07:00:10;14.10;99.90
26408;DHT22;14583;43.604;1.364;2023-05-20T07:02:36;14.20;99.90
26408;DHT22;14583;43.604;1.364;2023-05-20T07:05:02;14.10;99.90
26408;DHT22;14583;43.604;1.364;2023-05-20T07:07:27;14.10;99.90
26408;DHT22;14583;43.604;1.364;2023-05-20T07:09:54;14.20;99.90
26408;DHT22;14583;43.604;1.364;2023-05-20T07:12:19;14.10;99.90
26408;DHT22;14583;43.604;1.364;2023-05-20T07:14:45;14.20;99.90
26408;DHT22;14583;43.604;1.364;2023-05-20T07:17:11;14.30;99.90
26408;DHT22;14583;43.604;1.364;2023-05-20T07:19:37;14.40;99.90
26408;DHT22;14583;43.604;1.364;2023-05-20T07:22:02;14.50;99.90
26408;DHT22;14583;43.604;1.364;2023-05-20T07:24:28;14.50;99.90
26408;DHT22;14583;43.604;1.364;2023-05-20T07:26:54;14.50;99.90
26408;DHT22;14583;43.604;1.364;2023-05-20T07:29:20;14.60;99.90
26408;DHT22;14583;43.604;1.364;2023-05-20T07:31:45;14.70;99.90
26408;DHT22;14583;43.604;1.364;2023-05-20T07:34:11;14.70;99.90
26408;DHT22;14583;43.604;1.364;2023-05-20T07:36:37;14.70;99.90
26408;DHT22;14583;43.604;1.364;2023-05-20T07:39:03;14.80;99.90
26408;DHT22;14583;43.604;1.364;2023-05-20T07:41:28;14.80;99.90
26408;DHT22;14583;43.604;1.364;2023-05-20T07:43:54;14.90;99.90
26408;DHT22;14583;43.604;1.364;2023-05-20T07:46:20;14.90;99.90
26408;DHT22;14583;43.604;1.364;2023-05-20T07:48:46;14.90;99.90
26408;DHT22;14583;43.604;1.364;2023-05-20T07:51:11;14.80;99.90
26408;DHT22;14583;43.604;1.364;2023-05-20T07:53:37;14.80;99.90
26408;DHT22;14583;43.604;1.364;2023-05-20T07:56:03;14.80;99.90
26408;DHT22;14583;43.604;1.364;2023-05-20T07:58:30;14.90;99.90
26408;DHT22;14583;43.604;1.364;2023-05-20T08:00:56;14.90;99.90
26408;DHT22;14583;43.604;1.364;2023-05-20T08:03:21;14.80;99.90
26408;DHT22;14583;43.604;1.364;2023-05-20T08:05:47;14.90;99.90
26408;DHT22;14583;43.604;1.364;2023-05-20T08:08:13;15.00;99.90
26408;DHT22;14583;43.604;1.364;2023-05-20T08:10:39;14.90;99.90
26408;DHT22;14583;43.604;1.364;2023-05-20T08:13:04;15.00;99.90
26408;DHT22;14583;43.604;1.364;2023-05-20T08:15:30;15.00;99.90
26408;DHT22;14583;43.604;1.364;2023-05-20T08:17:56;15.10;99.90
26408;DHT22;14583;43.604;1.364;2023-05-20T08:20:21;15.20;99.90
26408;DHT22;14583;43.604;1.364;2023-05-20T08:22:47;15.30;99.90
26408;DHT22;14583;43.604;1.364;2023-05-20T08:25:13;15.40;99.90
26408;DHT22;14583;43.604;1.364;2023-05-20T08:27:39;15.40;99.90
26408;DHT22;14583;43.604;1.364;2023-05-20T08:30:06;15.40;99.90
26408;DHT22;14583;43.604;1.364;2023-05-20T08:32:34;15.50;99.90
26408;DHT22;14583;43.604;1.364;2023-05-20T08:35:01;15.60;99.90
26408;DHT22;14583;43.604;1.364;2023-05-20T08:37:28;15.60;99.90
26408;DHT22;14583;43.604;1.364;2023-05-20T08:39:54;15.70;99.90
26408;DHT22;14583;43.604;1.364;2023-05-20T08:42:23;15.70;99.90
26408;DHT22;14583;43.604;1.364;2023-05-20T08:44:51;15.80;99.90
26408;DHT22;14583;43.604;1.364;2023-05-20T08:47:19;15.80;99.90
26408;DHT22;14583;43.604;1.364;2023-05-20T08:49:46;15.90;99.90
26408;DHT22;14583;43.604;1.364;2023-05-20T08:52:12;15.80;99.90
26408;DHT22;14583;43.604;1.364;2023-05-20T08:54:47;15.90;99.90
26408;DHT22;14583;43.604;1.364;2023-05-20T08:57:14;16.00;99.90
26408;DHT22;14583;43.604;1.364;2023-05-20T08:59:44;16.10;99.90
26408;DHT22;14583;43.604;1.364;2023-05-20T09:02:11;16.10;99.90
26408;DHT22;14583;43.604;1.364;2023-05-20T09:04:37;16.20;99.90
26408;DHT22;14583;43.604;1.364;2023-05-20T09:07:03;16.30;99.90
26408;DHT22;14583;43.604;1.364;2023-05-20T09:09:31;16.40;99.90
26408;DHT22;14583;43.604;1.364;2023-05-20T09:11:58;16.50;99.90
26408;DHT22;14583;43.604;1.364;2023-05-20T09:14:24;16.50;99.90
26408;DHT22;14583;43.604;1.364;2023-05-20T09:16:51;16.60;99.90
26408;DHT22;14583;43.604;1.364;2023-05-20T09:19:20;16.60;99.90
26408;DHT22;14583;43.604;1.364;2023-05-20T09:21:46;16.60;99.90
26408;DHT22;14583;43.604;1.364;2023-05-20T09:24:12;16.50;99.90
26408;DHT22;14583;43.604;1.364;2023-05-20T09:26:38;16.60;99.90
26408;DHT22;14583;43.604;1.364;2023-05-20T09:29:03;16.60;99.90
26408;DHT22;14583;43.604;1.364;2023-05-20T09:31:33;16.60;99.90
26408;DHT22;14583;43.604;1.364;2023-05-20T09:34:00;16.70;99.90
26408;DHT22;14583;43.604;1.364;2023-05-20T09:36:28;16.50;99.90
26408;DHT22;14583;43.604;1.364;2023-05-20T09:39:02;16.60;99.90
26408;DHT22;14583;43.604;1.364;2023-05-20T09:41:33;16.60;99.90
26408;DHT22;14583;43.604;1.364;2023-05-20T09:44:04;16.70;99.90
26408;DHT22;14583;43.604;1.364;2023-05-20T09:46:32;16.70;99.90
26408;DHT22;14583;43.604;1.364;2023-05-20T09:48:59;16.80;99.90
26408;DHT22;14583;43.604;1.364;2023-05-20T09:51:26;16.70;99.90
26408;DHT22;14583;43.604;1.364;2023-05-20T09:53:54;16.90;99.90
26408;DHT22;14583;43.604;1.364;2023-05-20T09:56:19;17.00;99.90
26408;DHT22;14583;43.604;1.364;2023-05-20T09:58:49;17.10;99.90
26408;DHT22;14583;43.604;1.364;2023-05-20T10:01:15;17.20;99.90
26408;DHT22;14583;43.604;1.364;2023-05-20T10:03:41;17.30;99.90
26408;DHT22;14583;43.604;1.364;2023-05-20T10:06:35;17.40;99.90
26408;DHT22;14583;43.604;1.364;2023-05-20T10:12:23;17.50;99.90
26408;DHT22;14583;43.604;1.364;2023-05-20T10:15:26;17.50;99.90
26408;DHT22;14583;43.604;1.364;2023-05-20T10:20:49;17.70;99.90
26408;DHT22;14583;43.604;1.364;2023-05-20T10:23:23;17.90;99.90
26408;DHT22;14583;43.604;1.364;2023-05-20T10:25:53;18.00;99.90
26408;DHT22;14583;43.604;1.364;2023-05-20T10:28:33;18.10;99.90
26408;DHT22;14583;43.604;1.364;2023-05-20T10:31:00;18.20;99.90
26408;DHT22;14583;43.604;1.364;2023-05-20T10:33:26;18.30;99.90
26408;DHT22;14583;43.604;1.364;2023-05-20T10:35:53;18.40;99.90
26408;DHT22;14583;43.604;1.364;2023-05-20T10:38:19;18.40;99.90
26408;DHT22;14583;43.604;1.364;2023-05-20T10:40:46;18.50;99.90
26408;DHT22;14583;43.604;1.364;2023-05-20T10:43:14;18.40;99.90
26408;DHT22;14583;43.604;1.364;2023-05-20T10:45:52;18.40;99.90
26408;DHT22;14583;43.604;1.364;2023-05-20T10:48:27;18.60;99.90
26408;DHT22;14583;43.604;1.364;2023-05-20T10:50:55;18.70;99.90
26408;DHT22;14583;43.604;1.364;2023-05-20T10:53:22;18.60;99.90
26408;DHT22;14583;43.604;1.364;2023-05-20T10:55:50;18.80;99.90
26408;DHT22;14583;43.604;1.364;2023-05-20T10:58:16;18.90;99.90
26408;DHT22;14583;43.604;1.364;2023-05-20T11:00:43;19.00;99.90
26408;DHT22;14583;43.604;1.364;2023-05-20T11:03:09;19.00;99.90
26408;DHT22;14583;43.604;1.364;2023-05-20T11:05:38;18.90;99.90
26408;DHT22;14583;43.604;1.364;2023-05-20T11:08:06;19.10;99.90
26408;DHT22;14583;43.604;1.364;2023-05-20T11:10:33;19.10;99.90
26408;DHT22;14583;43.604;1.364;2023-05-20T11:13:00;19.30;99.90
26408;DHT22;14583;43.604;1.364;2023-05-20T11:15:27;19.30;99.90
26408;DHT22;14583;43.604;1.364;2023-05-20T11:17:58;19.40;99.90
26408;DHT22;14583;43.604;1.364;2023-05-20T11:20:24;19.30;99.90
26408;DHT22;14583;43.604;1.364;2023-05-20T11:22:51;19.20;99.90
26408;DHT22;14583;43.604;1.364;2023-05-20T11:25:17;19.40;99.90
26408;DHT22;14583;43.604;1.364;2023-05-20T11:27:44;19.40;99.90
26408;DHT22;14583;43.604;1.364;2023-05-20T11:30:12;19.50;99.90
26408;DHT22;14583;43.604;1.364;2023-05-20T11:32:55;19.50;99.90
26408;DHT22;14583;43.604;1.364;2023-05-20T11:35:24;19.50;99.90
26408;DHT22;14583;43.604;1.364;2023-05-20T11:37:59;19.50;99.90
26408;DHT22;14583;43.604;1.364;2023-05-20T11:40:26;19.70;99.90
26408;DHT22;14583;43.604;1.364;2023-05-20T11:42:55;20.00;99.90
26408;DHT22;14583;43.604;1.364;2023-05-20T11:45:22;20.00;99.90
26408;DHT22;14583;43.604;1.364;2023-05-20T11:48:01;19.90;99.90
26408;DHT22;14583;43.604;1.364;2023-05-20T11:50:28;19.80;99.90
26408;DHT22;14583;43.604;1.364;2023-05-20T11:52:58;20.00;99.90
26408;DHT22;14583;43.604;1.364;2023-05-20T11:55:27;19.90;99.90
26408;DHT22;14583;43.604;1.364;2023-05-20T11:57:54;20.00;99.90
26408;DHT22;14583;43.604;1.364;2023-05-20T12:00:22;20.10;99.90
26408;DHT22;14583;43.604;1.364;2023-05-20T12:02:48;20.30;99.70
26408;DHT22;14583;43.604;1.364;2023-05-20T12:05:13;20.50;99.90
26408;DHT22;14583;43.604;1.364;2023-05-20T12:07:39;20.70;99.10
26408;DHT22;14583;43.604;1.364;2023-05-20T12:10:05;20.80;99.40
26408;DHT22;14583;43.604;1.364;2023-05-20T12:12:32;20.80;99.50
26408;DHT22;14583;43.604;1.364;2023-05-20T12:14:57;20.70;99.70
26408;DHT22;14583;43.604;1.364;2023-05-20T12:17:23;20.50;99.20
26408;DHT22;14583;43.604;1.364;2023-05-20T12:19:51;20.50;99.70
26408;DHT22;14583;43.604;1.364;2023-05-20T12:22:17;20.60;99.30
26408;DHT22;14583;43.604;1.364;2023-05-20T12:24:42;20.60;99.30
26408;DHT22;14583;43.604;1.364;2023-05-20T12:27:08;20.60;99.40
26408;DHT22;14583;43.604;1.364;2023-05-20T12:29:34;20.50;99.90
26408;DHT22;14583;43.604;1.364;2023-05-20T12:32:00;20.50;98.90
26408;DHT22;14583;43.604;1.364;2023-05-20T12:34:25;20.40;99.30
26408;DHT22;14583;43.604;1.364;2023-05-20T12:36:51;20.40;99.70
26408;DHT22;14583;43.604;1.364;2023-05-20T12:39:17;20.60;99.80
26408;DHT22;14583;43.604;1.364;2023-05-20T12:41:44;20.60;99.20
26408;DHT22;14583;43.604;1.364;2023-05-20T12:44:09;20.70;99.00
26408;DHT22;14583;43.604;1.364;2023-05-20T12:46:36;20.70;98.90
26408;DHT22;14583;43.604;1.364;2023-05-20T12:49:02;20.30;98.50
26408;DHT22;14583;43.604;1.364;2023-05-20T12:51:28;20.20;99.40
26408;DHT22;14583;43.604;1.364;2023-05-20T12:53:54;20.00;99.20
26408;DHT22;14583;43.604;1.364;2023-05-20T12:56:19;19.90;98.60
26408;DHT22;14583;43.604;1.364;2023-05-20T12:58:47;19.60;97.00
26408;DHT22;14583;43.604;1.364;2023-05-20T13:01:13;19.50;97.00
26408;DHT22;14583;43.604;1.364;2023-05-20T13:03:39;19.50;97.80
26408;DHT22;14583;43.604;1.364;2023-05-20T13:06:04;19.60;98.20
26408;DHT22;14583;43.604;1.364;2023-05-20T13:08:30;19.60;98.20
26408;DHT22;14583;43.604;1.364;2023-05-20T13:10:56;19.70;97.50
26408;DHT22;14583;43.604;1.364;2023-05-20T13:13:22;19.80;97.70
26408;DHT22;14583;43.604;1.364;2023-05-20T13:15:48;20.00;97.70
26408;DHT22;14583;43.604;1.364;2023-05-20T13:18:14;20.00;96.60
26408;DHT22;14583;43.604;1.364;2023-05-20T13:20:41;20.10;96.60
26408;DHT22;14583;43.604;1.364;2023-05-20T13:23:07;20.40;96.60
26408;DHT22;14583;43.604;1.364;2023-05-20T13:25:33;20.40;96.40
26408;DHT22;14583;43.604;1.364;2023-05-20T13:27:59;20.50;95.70
26408;DHT22;14583;43.604;1.364;2023-05-20T13:30:25;20.50;95.30
26408;DHT22;14583;43.604;1.364;2023-05-20T13:32:52;20.60;95.90
26408;DHT22;14583;43.604;1.364;2023-05-20T13:35:18;20.50;94.80
26408;DHT22;14583;43.604;1.364;2023-05-20T13:37:44;20.60;95.70
26408;DHT22;14583;43.604;1.364;2023-05-20T13:40:10;20.90;95.20
26408;DHT22;14583;43.604;1.364;2023-05-20T13:42:36;21.10;95.60
26408;DHT22;14583;43.604;1.364;2023-05-20T13:45:03;21.00;95.00
26408;DHT22;14583;43.604;1.364;2023-05-20T13:47:28;21.10;95.50
26408;DHT22;14583;43.604;1.364;2023-05-20T13:49:54;21.10;95.10
26408;DHT22;14583;43.604;1.364;2023-05-20T13:52:20;21.00;94.40
26408;DHT22;14583;43.604;1.364;2023-05-20T13:54:45;21.00;94.50
26408;DHT22;14583;43.604;1.364;2023-05-20T13:57:13;21.00;94.30
26408;DHT22;14583;43.604;1.364;2023-05-20T13:59:39;20.90;94.00
26408;DHT22;14583;43.604;1.364;2023-05-20T14:02:05;20.80;94.60
26408;DHT22;14583;43.604;1.364;2023-05-20T14:04:31;20.80;94.70
26408;DHT22;14583;43.604;1.364;2023-05-20T14:07:03;20.50;95.20
26408;DHT22;14583;43.604;1.364;2023-05-20T14:09:28;20.40;95.10
26408;DHT22;14583;43.604;1.364;2023-05-20T14:11:54;20.40;95.40
26408;DHT22;14583;43.604;1.364;2023-05-20T14:14:20;20.40;95.20
26408;DHT22;14583;43.604;1.364;2023-05-20T14:16:46;20.60;94.90
26408;DHT22;14583;43.604;1.364;2023-05-20T14:19:12;20.70;94.50
26408;DHT22;14583;43.604;1.364;2023-05-20T14:21:37;20.90;94.70
26408;DHT22;14583;43.604;1.364;2023-05-20T14:24:03;21.00;94.30
26408;DHT22;14583;43.604;1.364;2023-05-20T14:26:29;21.00;93.80
26408;DHT22;14583;43.604;1.364;2023-05-20T14:28:54;21.10;94.10
26408;DHT22;14583;43.604;1.364;2023-05-20T14:31:20;21.00;93.80
26408;DHT22;14583;43.604;1.364;2023-05-20T14:33:46;21.10;94.40
26408;DHT22;14583;43.604;1.364;2023-05-20T14:36:11;21.40;93.60
26408;DHT22;14583;43.604;1.364;2023-05-20T14:38:37;21.50;93.70
26408;DHT22;14583;43.604;1.364;2023-05-20T14:41:03;21.50;92.80
26408;DHT22;14583;43.604;1.364;2023-05-20T14:43:29;21.60;93.90
26408;DHT22;14583;43.604;1.364;2023-05-20T14:45:56;22.00;93.10
26408;DHT22;14583;43.604;1.364;2023-05-20T14:48:22;21.90;92.90
26408;DHT22;14583;43.604;1.364;2023-05-20T14:50:48;21.80;93.10
26408;DHT22;14583;43.604;1.364;2023-05-20T14:53:13;22.30;92.80
26408;DHT22;14583;43.604;1.364;2023-05-20T14:55:39;22.50;92.70
26408;DHT22;14583;43.604;1.364;2023-05-20T14:58:05;22.30;92.30
26408;DHT22;14583;43.604;1.364;2023-05-20T15:00:31;21.80;92.30
26408;DHT22;14583;43.604;1.364;2023-05-20T15:02:57;21.80;92.90
26408;DHT22;14583;43.604;1.364;2023-05-20T15:05:23;21.80;92.80
26408;DHT22;14583;43.604;1.364;2023-05-20T15:07:49;21.70;92.40
26408;DHT22;14583;43.604;1.364;2023-05-20T15:10:15;21.60;92.30
26408;DHT22;14583;43.604;1.364;2023-05-20T15:12:41;21.60;93.00
26408;DHT22;14583;43.604;1.364;2023-05-20T15:15:08;21.50;93.00
26408;DHT22;14583;43.604;1.364;2023-05-20T15:17:34;21.40;92.90
26408;DHT22;14583;43.604;1.364;2023-05-20T15:20:00;21.20;93.70
26408;DHT22;14583;43.604;1.364;2023-05-20T15:22:26;21.00;94.40
26408;DHT22;14583;43.604;1.364;2023-05-20T15:24:51;21.00;94.30
26408;DHT22;14583;43.604;1.364;2023-05-20T15:27:17;21.00;94.50
26408;DHT22;14583;43.604;1.364;2023-05-20T15:29:43;21.00;95.00
26408;DHT22;14583;43.604;1.364;2023-05-20T15:32:08;21.00;94.90